sensor_id;sensor_type;location;lat;lon;timestamp;P1;durP1;ratioP1;P2;durP2;ratioP2
39370;SDS011;25099;51.946;4.838;2023-05-07T00:00:16;33.67;;;27.00;;
39370;SDS011;25099;51.946;4.838;2023-05-07T00:02:44;32.70;;;28.15;;
39370;SDS011;25099;51.946;4.838;2023-05-07T00:05:10;34.40;;;27.63;;
39370;SDS011;25099;51.946;4.838;2023-05-07T00:07:36;35.92;;;30.27;;
39370;SDS011;25099;51.946;4.838;2023-05-07T00:10:02;37.72;;;30.05;;
39370;SDS011;25099;51.946;4.838;2023-05-07T00:12:28;37.92;;;29.55;;
39370;SDS011;25099;51.946;4.838;2023-05-07T00:14:56;35.28;;;29.02;;
39370;SDS011;25099;51.946;4.838;2023-05-07T00:17:22;41.08;;;30.50;;
39370;SDS011;25099;51.946;4.838;2023-05-07T00:19:48;34.55;;;30.23;;
39370;SDS011;25099;51.946;4.838;2023-05-07T00:22:13;36.17;;;28.95;;
39370;SDS011;25099;51.946;4.838;2023-05-07T00:24:39;33.88;;;29.77;;
39370;SDS011;25099;51.946;4.838;2023-05-07T00:27:04;36.08;;;29.85;;
39370;SDS011;25099;51.946;4.838;2023-05-07T00:29:30;36.40;;;30.33;;
39370;SDS011;25099;51.946;4.838;2023-05-07T00:31:56;33.88;;;29.27;;
39370;SDS011;25099;51.946;4.838;2023-05-07T00:34:21;35.38;;;27.67;;
39370;SDS011;25099;51.946;4.838;2023-05-07T00:36:47;36.88;;;28.30;;
39370;SDS011;25099;51.946;4.838;2023-05-07T00:39:13;34.83;;;26.85;;
39370;SDS011;25099;51.946;4.838;2023-05-07T00:41:38;32.17;;;26.83;;
39370;SDS011;25099;51.946;4.838;2023-05-07T00:44:04;30.80;;;27.13;;
39370;SDS011;25099;51.946;4.838;2023-05-07T00:46:30;30.55;;;25.90;;
39370;SDS011;25099;51.946;4.838;2023-05-07T00:48:56;29.45;;;24.88;;
39370;SDS011;25099;51.946;4.838;2023-05-07T00:51:22;26.42;;;23.60;;
39370;SDS011;25099;51.946;4.838;2023-05-07T00:53:50;27.25;;;23.80;;
39370;SDS011;25099;51.946;4.838;2023-05-07T00:56:15;26.67;;;23.77;;
39370;SDS011;25099;51.946;4.838;2023-05-07T00:58:41;28.42;;;23.88;;
39370;SDS011;25099;51.946;4.838;2023-05-07T01:01:07;26.33;;;23.52;;
39370;SDS011;25099;51.946;4.838;2023-05-07T01:03:33;29.52;;;24.55;;
39370;SDS011;25099;51.946;4.838;2023-05-07T01:05:58;26.73;;;23.75;;
39370;SDS011;25099;51.946;4.838;2023-05-07T01:08:25;26.65;;;24.02;;
39370;SDS011;25099;51.946;4.838;2023-05-07T01:10:54;27.73;;;24.92;;
39370;SDS011;25099;51.946;4.838;2023-05-07T01:13:21;28.17;;;25.05;;
39370;SDS011;25099;51.946;4.838;2023-05-07T01:15:47;26.23;;;23.23;;
39370;SDS011;25099;51.946;4.838;2023-05-07T01:18:13;29.33;;;23.25;;
39370;SDS011;25099;51.946;4.838;2023-05-07T01:20:38;27.58;;;24.65;;
39370;SDS011;25099;51.946;4.838;2023-05-07T01:23:04;26.23;;;22.58;;
39370;SDS011;25099;51.946;4.838;2023-05-07T01:25:32;26.90;;;24.00;;
39370;SDS011;25099;51.946;4.838;2023-05-07T01:27:58;25.90;;;23.25;;
39370;SDS011;25099;51.946;4.838;2023-05-07T01:30:25;21.52;;;19.45;;
39370;SDS011;25099;51.946;4.838;2023-05-07T01:33:04;21.88;;;19.67;;
39370;SDS011;25099;51.946;4.838;2023-05-07T01:35:39;22.38;;;20.17;;
39370;SDS011;25099;51.946;4.838;2023-05-07T01:38:07;21.52;;;19.27;;
39370;SDS011;25099;51.946;4.838;2023-05-07T01:40:33;20.00;;;17.90;;
39370;SDS011;25099;51.946;4.838;2023-05-07T01:43:02;24.63;;;19.45;;
39370;SDS011;25099;51.946;4.838;2023-05-07T01:45:28;20.45;;;18.38;;
39370;SDS011;25099;51.946;4.838;2023-05-07T01:47:55;21.30;;;19.23;;
39370;SDS011;25099;51.946;4.838;2023-05-07T01:50:22;19.75;;;17.92;;
39370;SDS011;25099;51.946;4.838;2023-05-07T01:52:49;19.33;;;17.60;;
39370;SDS011;25099;51.946;4.838;2023-05-07T01:55:15;18.90;;;17.02;;
39370;SDS011;25099;51.946;4.838;2023-05-07T01:57:41;18.58;;;16.83;;
39370;SDS011;25099;51.946;4.838;2023-05-07T02:00:06;20.58;;;16.70;;
39370;SDS011;25099;51.946;4.838;2023-05-07T02:02:34;18.20;;;16.48;;
39370;SDS011;25099;51.946;4.838;2023-05-07T02:04:59;16.27;;;14.90;;
39370;SDS011;25099;51.946;4.838;2023-05-07T02:07:26;17.80;;;16.30;;
39370;SDS011;25099;51.946;4.838;2023-05-07T02:09:51;17.02;;;15.50;;
39370;SDS011;25099;51.946;4.838;2023-05-07T02:12:17;17.70;;;16.00;;
39370;SDS011;25099;51.946;4.838;2023-05-07T02:14:42;17.17;;;15.68;;
39370;SDS011;25099;51.946;4.838;2023-05-07T02:17:08;15.98;;;14.75;;
39370;SDS011;25099;51.946;4.838;2023-05-07T02:19:33;15.48;;;14.18;;
39370;SDS011;25099;51.946;4.838;2023-05-07T02:22:00;15.10;;;13.55;;
39370;SDS011;25099;51.946;4.838;2023-05-07T02:24:25;15.25;;;13.95;;
39370;SDS011;25099;51.946;4.838;2023-05-07T02:26:51;14.95;;;13.75;;
39370;SDS011;25099;51.946;4.838;2023-05-07T02:29:16;14.75;;;13.35;;
39370;SDS011;25099;51.946;4.838;2023-05-07T02:31:42;14.60;;;13.32;;
39370;SDS011;25099;51.946;4.838;2023-05-07T02:34:07;15.90;;;14.48;;
39370;SDS011;25099;51.946;4.838;2023-05-07T02:36:33;16.88;;;13.30;;
39370;SDS011;25099;51.946;4.838;2023-05-07T02:38:58;13.73;;;12.63;;
39370;SDS011;25099;51.946;4.838;2023-05-07T02:41:24;13.73;;;12.48;;
39370;SDS011;25099;51.946;4.838;2023-05-07T02:43:49;14.48;;;13.07;;
39370;SDS011;25099;51.946;4.838;2023-05-07T02:46:15;13.35;;;12.25;;
39370;SDS011;25099;51.946;4.838;2023-05-07T02:48:40;13.27;;;12.23;;
39370;SDS011;25099;51.946;4.838;2023-05-07T02:51:06;12.52;;;11.32;;
39370;SDS011;25099;51.946;4.838;2023-05-07T02:53:32;13.15;;;12.05;;
39370;SDS011;25099;51.946;4.838;2023-05-07T02:55:58;12.88;;;11.73;;
39370;SDS011;25099;51.946;4.838;2023-05-07T02:58:25;12.82;;;11.88;;
39370;SDS011;25099;51.946;4.838;2023-05-07T03:00:51;12.73;;;11.25;;
39370;SDS011;25099;51.946;4.838;2023-05-07T03:03:17;12.65;;;11.48;;
39370;SDS011;25099;51.946;4.838;2023-05-07T03:05:43;13.30;;;12.15;;
39370;SDS011;25099;51.946;4.838;2023-05-07T03:08:09;13.30;;;12.02;;
39370;SDS011;25099;51.946;4.838;2023-05-07T03:10:35;13.10;;;12.00;;
39370;SDS011;25099;51.946;4.838;2023-05-07T03:13:01;13.93;;;12.52;;
39370;SDS011;25099;51.946;4.838;2023-05-07T03:15:27;13.48;;;12.27;;
39370;SDS011;25099;51.946;4.838;2023-05-07T03:17:52;14.98;;;13.50;;
39370;SDS011;25099;51.946;4.838;2023-05-07T03:20:18;13.63;;;12.32;;
39370;SDS011;25099;51.946;4.838;2023-05-07T03:22:43;13.35;;;12.00;;
39370;SDS011;25099;51.946;4.838;2023-05-07T03:25:09;13.18;;;12.15;;
39370;SDS011;25099;51.946;4.838;2023-05-07T03:27:35;14.43;;;13.23;;
39370;SDS011;25099;51.946;4.838;2023-05-07T03:30:00;14.38;;;13.15;;
39370;SDS011;25099;51.946;4.838;2023-05-07T03:32:26;13.68;;;12.38;;
39370;SDS011;25099;51.946;4.838;2023-05-07T03:34:51;13.68;;;12.52;;
39370;SDS011;25099;51.946;4.838;2023-05-07T03:37:17;16.33;;;12.68;;
39370;SDS011;25099;51.946;4.838;2023-05-07T03:39:43;13.23;;;12.05;;
39370;SDS011;25099;51.946;4.838;2023-05-07T03:42:09;14.38;;;13.20;;
39370;SDS011;25099;51.946;4.838;2023-05-07T03:44:34;12.80;;;11.60;;
39370;SDS011;25099;51.946;4.838;2023-05-07T03:47:01;13.57;;;12.55;;
39370;SDS011;25099;51.946;4.838;2023-05-07T03:49:27;15.82;;;12.32;;
39370;SDS011;25099;51.946;4.838;2023-05-07T03:51:53;12.88;;;11.68;;
39370;SDS011;25099;51.946;4.838;2023-05-07T03:54:18;13.18;;;12.13;;
39370;SDS011;25099;51.946;4.838;2023-05-07T03:56:44;13.65;;;12.30;;
39370;SDS011;25099;51.946;4.838;2023-05-07T03:59:09;14.27;;;12.90;;
39370;SDS011;25099;51.946;4.838;2023-05-07T04:01:35;13.95;;;12.60;;
39370;SDS011;25099;51.946;4.838;2023-05-07T04:04:01;13.43;;;12.15;;
39370;SDS011;25099;51.946;4.838;2023-05-07T04:06:28;13.48;;;12.35;;
39370;SDS011;25099;51.946;4.838;2023-05-07T04:08:53;14.45;;;13.15;;
39370;SDS011;25099;51.946;4.838;2023-05-07T04:11:19;13.90;;;12.63;;
39370;SDS011;25099;51.946;4.838;2023-05-07T04:13:45;13.07;;;11.90;;
39370;SDS011;25099;51.946;4.838;2023-05-07T04:16:10;13.07;;;12.05;;
39370;SDS011;25099;51.946;4.838;2023-05-07T04:18:36;13.80;;;12.70;;
39370;SDS011;25099;51.946;4.838;2023-05-07T04:21:01;14.68;;;13.35;;
39370;SDS011;25099;51.946;4.838;2023-05-07T04:23:27;13.88;;;12.57;;
39370;SDS011;25099;51.946;4.838;2023-05-07T04:25:53;13.55;;;12.15;;
39370;SDS011;25099;51.946;4.838;2023-05-07T04:28:19;14.20;;;12.75;;
39370;SDS011;25099;51.946;4.838;2023-05-07T04:30:45;14.20;;;11.90;;
39370;SDS011;25099;51.946;4.838;2023-05-07T04:33:11;14.07;;;12.88;;
39370;SDS011;25099;51.946;4.838;2023-05-07T04:35:36;14.45;;;13.02;;
39370;SDS011;25099;51.946;4.838;2023-05-07T04:38:02;13.90;;;12.52;;
39370;SDS011;25099;51.946;4.838;2023-05-07T04:40:28;14.75;;;13.27;;
39370;SDS011;25099;51.946;4.838;2023-05-07T04:42:54;14.75;;;13.65;;
39370;SDS011;25099;51.946;4.838;2023-05-07T04:45:19;13.57;;;12.45;;
39370;SDS011;25099;51.946;4.838;2023-05-07T04:47:45;15.00;;;13.65;;
39370;SDS011;25099;51.946;4.838;2023-05-07T04:50:10;15.35;;;13.98;;
39370;SDS011;25099;51.946;4.838;2023-05-07T04:52:36;15.98;;;14.13;;
39370;SDS011;25099;51.946;4.838;2023-05-07T04:55:02;16.33;;;14.55;;
39370;SDS011;25099;51.946;4.838;2023-05-07T04:57:28;15.57;;;14.27;;
39370;SDS011;25099;51.946;4.838;2023-05-07T04:59:54;15.90;;;14.40;;
39370;SDS011;25099;51.946;4.838;2023-05-07T05:02:19;17.63;;;16.05;;
39370;SDS011;25099;51.946;4.838;2023-05-07T05:04:45;18.77;;;16.45;;
39370;SDS011;25099;51.946;4.838;2023-05-07T05:07:10;18.60;;;16.67;;
39370;SDS011;25099;51.946;4.838;2023-05-07T05:09:36;19.23;;;17.50;;
39370;SDS011;25099;51.946;4.838;2023-05-07T05:12:02;18.67;;;16.95;;
39370;SDS011;25099;51.946;4.838;2023-05-07T05:14:27;18.98;;;17.23;;
39370;SDS011;25099;51.946;4.838;2023-05-07T05:16:53;20.08;;;18.15;;
39370;SDS011;25099;51.946;4.838;2023-05-07T05:19:18;20.33;;;18.38;;
39370;SDS011;25099;51.946;4.838;2023-05-07T05:21:44;21.33;;;19.33;;
39370;SDS011;25099;51.946;4.838;2023-05-07T05:24:09;20.45;;;18.52;;
39370;SDS011;25099;51.946;4.838;2023-05-07T05:26:35;21.35;;;19.20;;
39370;SDS011;25099;51.946;4.838;2023-05-07T05:29:00;21.70;;;18.00;;
39370;SDS011;25099;51.946;4.838;2023-05-07T05:31:26;21.48;;;19.20;;
39370;SDS011;25099;51.946;4.838;2023-05-07T05:33:52;27.42;;;20.17;;
39370;SDS011;25099;51.946;4.838;2023-05-07T05:36:17;24.02;;;19.98;;
39370;SDS011;25099;51.946;4.838;2023-05-07T05:38:43;22.95;;;20.45;;
39370;SDS011;25099;51.946;4.838;2023-05-07T05:41:09;23.65;;;21.08;;
39370;SDS011;25099;51.946;4.838;2023-05-07T05:43:35;25.15;;;22.40;;
39370;SDS011;25099;51.946;4.838;2023-05-07T05:46:00;27.73;;;23.05;;
39370;SDS011;25099;51.946;4.838;2023-05-07T05:48:26;25.85;;;23.15;;
39370;SDS011;25099;51.946;4.838;2023-05-07T05:50:52;26.70;;;23.42;;
39370;SDS011;25099;51.946;4.838;2023-05-07T05:53:17;25.77;;;22.92;;
39370;SDS011;25099;51.946;4.838;2023-05-07T05:55:43;25.52;;;22.95;;
39370;SDS011;25099;51.946;4.838;2023-05-07T05:58:09;26.42;;;23.27;;
39370;SDS011;25099;51.946;4.838;2023-05-07T06:00:34;26.08;;;23.33;;
39370;SDS011;25099;51.946;4.838;2023-05-07T06:03:00;27.65;;;24.85;;
39370;SDS011;25099;51.946;4.838;2023-05-07T06:05:26;25.52;;;22.88;;
39370;SDS011;25099;51.946;4.838;2023-05-07T06:07:51;26.30;;;23.50;;
39370;SDS011;25099;51.946;4.838;2023-05-07T06:10:17;26.23;;;23.52;;
39370;SDS011;25099;51.946;4.838;2023-05-07T06:12:43;28.00;;;23.83;;
39370;SDS011;25099;51.946;4.838;2023-05-07T06:15:08;25.70;;;22.98;;
39370;SDS011;25099;51.946;4.838;2023-05-07T06:17:34;27.35;;;23.73;;
39370;SDS011;25099;51.946;4.838;2023-05-07T06:20:00;25.52;;;22.98;;
39370;SDS011;25099;51.946;4.838;2023-05-07T06:22:25;26.25;;;23.45;;
39370;SDS011;25099;51.946;4.838;2023-05-07T06:24:51;25.90;;;23.30;;
39370;SDS011;25099;51.946;4.838;2023-05-07T06:27:16;29.17;;;25.10;;
39370;SDS011;25099;51.946;4.838;2023-05-07T06:29:42;26.98;;;24.15;;
39370;SDS011;25099;51.946;4.838;2023-05-07T06:32:08;27.30;;;24.55;;
39370;SDS011;25099;51.946;4.838;2023-05-07T06:34:34;28.15;;;23.83;;
39370;SDS011;25099;51.946;4.838;2023-05-07T06:37:00;30.48;;;22.77;;
39370;SDS011;25099;51.946;4.838;2023-05-07T06:39:26;28.98;;;24.80;;
39370;SDS011;25099;51.946;4.838;2023-05-07T06:41:51;27.30;;;24.42;;
39370;SDS011;25099;51.946;4.838;2023-05-07T06:44:17;29.48;;;25.92;;
39370;SDS011;25099;51.946;4.838;2023-05-07T06:46:42;27.58;;;24.67;;
39370;SDS011;25099;51.946;4.838;2023-05-07T06:49:08;28.95;;;25.98;;
39370;SDS011;25099;51.946;4.838;2023-05-07T06:51:33;28.27;;;25.25;;
39370;SDS011;25099;51.946;4.838;2023-05-07T06:53:59;31.50;;;25.92;;
39370;SDS011;25099;51.946;4.838;2023-05-07T06:56:25;35.35;;;27.92;;
39370;SDS011;25099;51.946;4.838;2023-05-07T06:58:50;30.45;;;26.60;;
39370;SDS011;25099;51.946;4.838;2023-05-07T07:01:16;30.48;;;27.08;;
39370;SDS011;25099;51.946;4.838;2023-05-07T07:03:41;31.98;;;28.60;;
39370;SDS011;25099;51.946;4.838;2023-05-07T07:06:07;33.30;;;29.52;;
39370;SDS011;25099;51.946;4.838;2023-05-07T07:08:32;30.88;;;27.52;;
39370;SDS011;25099;51.946;4.838;2023-05-07T07:10:59;32.97;;;29.50;;
39370;SDS011;25099;51.946;4.838;2023-05-07T07:13:25;35.13;;;30.83;;
39370;SDS011;25099;51.946;4.838;2023-05-07T07:15:51;34.67;;;31.08;;
39370;SDS011;25099;51.946;4.838;2023-05-07T07:18:17;40.85;;;33.35;;
39370;SDS011;25099;51.946;4.838;2023-05-07T07:20:42;38.45;;;33.60;;
39370;SDS011;25099;51.946;4.838;2023-05-07T07:23:09;35.88;;;31.90;;
39370;SDS011;25099;51.946;4.838;2023-05-07T07:25:35;34.15;;;30.52;;
39370;SDS011;25099;51.946;4.838;2023-05-07T07:28:00;37.78;;;32.20;;
39370;SDS011;25099;51.946;4.838;2023-05-07T07:30:26;36.53;;;32.20;;
39370;SDS011;25099;51.946;4.838;2023-05-07T07:32:51;32.75;;;29.45;;
39370;SDS011;25099;51.946;4.838;2023-05-07T07:35:17;36.95;;;30.95;;
39370;SDS011;25099;51.946;4.838;2023-05-07T07:37:43;36.85;;;30.35;;
39370;SDS011;25099;51.946;4.838;2023-05-07T07:40:09;35.03;;;29.58;;
39370;SDS011;25099;51.946;4.838;2023-05-07T07:42:35;35.22;;;31.38;;
39370;SDS011;25099;51.946;4.838;2023-05-07T07:45:00;36.40;;;30.58;;
39370;SDS011;25099;51.946;4.838;2023-05-07T07:47:26;31.65;;;28.30;;
39370;SDS011;25099;51.946;4.838;2023-05-07T07:49:51;34.35;;;29.30;;
39370;SDS011;25099;51.946;4.838;2023-05-07T07:52:17;32.70;;;29.10;;
39370;SDS011;25099;51.946;4.838;2023-05-07T07:54:44;32.97;;;29.50;;
39370;SDS011;25099;51.946;4.838;2023-05-07T07:57:09;31.63;;;28.23;;
39370;SDS011;25099;51.946;4.838;2023-05-07T07:59:35;34.45;;;28.42;;
39370;SDS011;25099;51.946;4.838;2023-05-07T08:02:00;31.77;;;27.40;;
39370;SDS011;25099;51.946;4.838;2023-05-07T08:04:26;28.52;;;25.45;;
39370;SDS011;25099;51.946;4.838;2023-05-07T08:06:51;29.55;;;26.63;;
39370;SDS011;25099;51.946;4.838;2023-05-07T08:09:19;30.83;;;26.45;;
39370;SDS011;25099;51.946;4.838;2023-05-07T08:11:44;31.50;;;27.25;;
39370;SDS011;25099;51.946;4.838;2023-05-07T08:14:10;28.30;;;25.30;;
39370;SDS011;25099;51.946;4.838;2023-05-07T08:16:36;27.17;;;24.15;;
39370;SDS011;25099;51.946;4.838;2023-05-07T08:19:02;26.98;;;23.88;;
39370;SDS011;25099;51.946;4.838;2023-05-07T08:21:28;27.20;;;24.38;;
39370;SDS011;25099;51.946;4.838;2023-05-07T08:23:53;28.27;;;24.48;;
39370;SDS011;25099;51.946;4.838;2023-05-07T08:26:19;26.45;;;23.70;;
39370;SDS011;25099;51.946;4.838;2023-05-07T08:28:45;26.48;;;23.92;;
39370;SDS011;25099;51.946;4.838;2023-05-07T08:31:10;26.33;;;23.48;;
39370;SDS011;25099;51.946;4.838;2023-05-07T08:33:36;25.60;;;21.83;;
39370;SDS011;25099;51.946;4.838;2023-05-07T08:36:03;25.10;;;22.55;;
39370;SDS011;25099;51.946;4.838;2023-05-07T08:38:29;25.08;;;22.48;;
39370;SDS011;25099;51.946;4.838;2023-05-07T08:40:55;25.52;;;22.52;;
39370;SDS011;25099;51.946;4.838;2023-05-07T08:43:20;26.20;;;22.67;;
39370;SDS011;25099;51.946;4.838;2023-05-07T08:45:48;24.63;;;20.52;;
39370;SDS011;25099;51.946;4.838;2023-05-07T08:48:17;23.70;;;21.30;;
39370;SDS011;25099;51.946;4.838;2023-05-07T08:50:42;23.05;;;20.63;;
39370;SDS011;25099;51.946;4.838;2023-05-07T08:53:08;26.27;;;20.98;;
39370;SDS011;25099;51.946;4.838;2023-05-07T08:55:34;23.25;;;20.98;;
39370;SDS011;25099;51.946;4.838;2023-05-07T08:58:00;23.77;;;21.33;;
39370;SDS011;25099;51.946;4.838;2023-05-07T09:00:26;22.33;;;20.00;;
39370;SDS011;25099;51.946;4.838;2023-05-07T09:02:52;21.42;;;19.23;;
39370;SDS011;25099;51.946;4.838;2023-05-07T09:05:18;21.48;;;18.55;;
39370;SDS011;25099;51.946;4.838;2023-05-07T09:07:44;20.33;;;18.17;;
39370;SDS011;25099;51.946;4.838;2023-05-07T09:10:11;20.33;;;18.17;;
39370;SDS011;25099;51.946;4.838;2023-05-07T09:12:37;21.05;;;18.48;;
39370;SDS011;25099;51.946;4.838;2023-05-07T09:15:04;18.30;;;16.38;;
39370;SDS011;25099;51.946;4.838;2023-05-07T09:17:30;21.05;;;17.15;;
39370;SDS011;25099;51.946;4.838;2023-05-07T09:19:56;19.13;;;17.23;;
39370;SDS011;25099;51.946;4.838;2023-05-07T09:22:26;19.77;;;17.50;;
39370;SDS011;25099;51.946;4.838;2023-05-07T09:24:52;15.75;;;14.35;;
39370;SDS011;25099;51.946;4.838;2023-05-07T09:27:17;15.55;;;13.10;;
39370;SDS011;25099;51.946;4.838;2023-05-07T09:29:43;15.57;;;13.85;;
39370;SDS011;25099;51.946;4.838;2023-05-07T09:32:09;18.50;;;13.65;;
39370;SDS011;25099;51.946;4.838;2023-05-07T09:34:35;16.17;;;12.85;;
39370;SDS011;25099;51.946;4.838;2023-05-07T09:37:02;13.43;;;12.02;;
39370;SDS011;25099;51.946;4.838;2023-05-07T09:39:44;13.90;;;12.45;;
39370;SDS011;25099;51.946;4.838;2023-05-07T09:42:11;14.13;;;12.65;;
39370;SDS011;25099;51.946;4.838;2023-05-07T09:44:38;13.38;;;12.07;;
39370;SDS011;25099;51.946;4.838;2023-05-07T09:47:06;14.95;;;11.93;;
39370;SDS011;25099;51.946;4.838;2023-05-07T09:49:37;14.32;;;12.73;;
39370;SDS011;25099;51.946;4.838;2023-05-07T09:52:04;15.82;;;13.15;;
39370;SDS011;25099;51.946;4.838;2023-05-07T09:54:33;12.73;;;11.45;;
39370;SDS011;25099;51.946;4.838;2023-05-07T09:57:01;14.57;;;12.85;;
39370;SDS011;25099;51.946;4.838;2023-05-07T09:59:28;15.30;;;13.50;;
39370;SDS011;25099;51.946;4.838;2023-05-07T10:01:57;15.23;;;12.88;;
39370;SDS011;25099;51.946;4.838;2023-05-07T10:04:24;14.70;;;13.20;;
39370;SDS011;25099;51.946;4.838;2023-05-07T10:06:51;20.73;;;11.82;;
39370;SDS011;25099;51.946;4.838;2023-05-07T10:09:18;15.68;;;12.45;;
39370;SDS011;25099;51.946;4.838;2023-05-07T10:11:44;15.32;;;12.73;;
39370;SDS011;25099;51.946;4.838;2023-05-07T10:14:11;11.77;;;10.68;;
39370;SDS011;25099;51.946;4.838;2023-05-07T10:16:38;13.25;;;11.70;;
39370;SDS011;25099;51.946;4.838;2023-05-07T10:19:04;17.90;;;13.10;;
39370;SDS011;25099;51.946;4.838;2023-05-07T10:21:30;14.20;;;12.88;;
39370;SDS011;25099;51.946;4.838;2023-05-07T10:26:24;13.57;;;11.40;;
39370;SDS011;25099;51.946;4.838;2023-05-07T10:28:54;14.13;;;11.65;;
39370;SDS011;25099;51.946;4.838;2023-05-07T10:34:13;13.50;;;10.77;;
39370;SDS011;25099;51.946;4.838;2023-05-07T10:36:46;11.55;;;10.35;;
39370;SDS011;25099;51.946;4.838;2023-05-07T10:39:14;13.73;;;11.55;;
39370;SDS011;25099;51.946;4.838;2023-05-07T10:41:39;11.65;;;10.45;;
39370;SDS011;25099;51.946;4.838;2023-05-07T10:44:05;12.80;;;10.30;;
39370;SDS011;25099;51.946;4.838;2023-05-07T10:46:31;10.30;;;9.40;;
39370;SDS011;25099;51.946;4.838;2023-05-07T10:51:25;12.40;;;10.00;;
39370;SDS011;25099;51.946;4.838;2023-05-07T10:56:39;12.57;;;11.02;;
39370;SDS011;25099;51.946;4.838;2023-05-07T11:02:04;12.73;;;11.48;;
39370;SDS011;25099;51.946;4.838;2023-05-07T11:04:34;12.27;;;11.10;;
39370;SDS011;25099;51.946;4.838;2023-05-07T11:12:16;13.23;;;11.50;;
39370;SDS011;25099;51.946;4.838;2023-05-07T11:15:00;13.80;;;12.50;;
39370;SDS011;25099;51.946;4.838;2023-05-07T11:17:29;13.27;;;12.07;;
39370;SDS011;25099;51.946;4.838;2023-05-07T11:20:00;14.65;;;13.35;;
39370;SDS011;25099;51.946;4.838;2023-05-07T11:24:59;14.68;;;12.40;;
39370;SDS011;25099;51.946;4.838;2023-05-07T11:27:26;14.55;;;13.13;;
39370;SDS011;25099;51.946;4.838;2023-05-07T11:29:52;14.77;;;13.45;;
39370;SDS011;25099;51.946;4.838;2023-05-07T11:32:31;15.00;;;13.60;;
39370;SDS011;25099;51.946;4.838;2023-05-07T11:34:57;16.10;;;13.63;;
39370;SDS011;25099;51.946;4.838;2023-05-07T11:37:24;15.48;;;13.80;;
39370;SDS011;25099;51.946;4.838;2023-05-07T11:39:52;15.27;;;13.90;;
39370;SDS011;25099;51.946;4.838;2023-05-07T11:42:40;14.77;;;13.35;;
39370;SDS011;25099;51.946;4.838;2023-05-07T11:45:08;17.02;;;12.98;;
39370;SDS011;25099;51.946;4.838;2023-05-07T11:47:34;15.43;;;14.05;;
39370;SDS011;25099;51.946;4.838;2023-05-07T11:50:04;14.23;;;12.80;;
39370;SDS011;25099;51.946;4.838;2023-05-07T11:52:33;13.95;;;9.90;;
39370;SDS011;25099;51.946;4.838;2023-05-07T11:55:00;10.55;;;9.25;;
39370;SDS011;25099;51.946;4.838;2023-05-07T11:57:28;10.02;;;8.85;;
39370;SDS011;25099;51.946;4.838;2023-05-07T11:59:54;9.07;;;7.78;;
39370;SDS011;25099;51.946;4.838;2023-05-07T12:02:20;10.15;;;7.28;;
39370;SDS011;25099;51.946;4.838;2023-05-07T12:04:46;11.50;;;7.97;;
39370;SDS011;25099;51.946;4.838;2023-05-07T12:07:12;13.93;;;8.45;;
39370;SDS011;25099;51.946;4.838;2023-05-07T12:09:39;11.10;;;9.32;;
39370;SDS011;25099;51.946;4.838;2023-05-07T12:12:08;10.23;;;8.70;;
39370;SDS011;25099;51.946;4.838;2023-05-07T12:14:37;11.70;;;8.98;;
39370;SDS011;25099;51.946;4.838;2023-05-07T12:17:09;10.98;;;8.02;;
39370;SDS011;25099;51.946;4.838;2023-05-07T12:19:36;10.30;;;8.05;;
39370;SDS011;25099;51.946;4.838;2023-05-07T12:22:04;12.05;;;7.43;;
39370;SDS011;25099;51.946;4.838;2023-05-07T12:27:36;8.35;;;7.38;;
39370;SDS011;25099;51.946;4.838;2023-05-07T12:30:03;7.95;;;6.90;;
39370;SDS011;25099;51.946;4.838;2023-05-07T12:32:28;9.52;;;7.15;;
39370;SDS011;25099;51.946;4.838;2023-05-07T12:34:54;8.48;;;7.18;;
39370;SDS011;25099;51.946;4.838;2023-05-07T12:37:26;8.85;;;6.63;;
39370;SDS011;25099;51.946;4.838;2023-05-07T12:40:05;8.98;;;7.40;;
39370;SDS011;25099;51.946;4.838;2023-05-07T12:42:35;12.10;;;7.07;;
39370;SDS011;25099;51.946;4.838;2023-05-07T12:45:11;7.40;;;6.65;;
39370;SDS011;25099;51.946;4.838;2023-05-07T12:47:38;8.05;;;7.35;;
39370;SDS011;25099;51.946;4.838;2023-05-07T12:50:06;11.25;;;8.30;;
39370;SDS011;25099;51.946;4.838;2023-05-07T12:52:32;10.20;;;8.57;;
39370;SDS011;25099;51.946;4.838;2023-05-07T12:55:04;9.07;;;8.13;;
39370;SDS011;25099;51.946;4.838;2023-05-07T12:57:30;11.90;;;8.35;;
39370;SDS011;25099;51.946;4.838;2023-05-07T13:00:06;8.50;;;7.70;;
39370;SDS011;25099;51.946;4.838;2023-05-07T13:02:39;9.52;;;8.57;;
39370;SDS011;25099;51.946;4.838;2023-05-07T13:05:06;12.93;;;7.75;;
39370;SDS011;25099;51.946;4.838;2023-05-07T13:07:33;8.27;;;7.65;;
39370;SDS011;25099;51.946;4.838;2023-05-07T13:09:59;8.43;;;7.22;;
39370;SDS011;25099;51.946;4.838;2023-05-07T13:12:24;9.98;;;8.52;;
39370;SDS011;25099;51.946;4.838;2023-05-07T13:14:50;8.63;;;7.35;;
39370;SDS011;25099;51.946;4.838;2023-05-07T13:17:15;8.90;;;6.75;;
39370;SDS011;25099;51.946;4.838;2023-05-07T13:19:41;13.52;;;12.10;;
39370;SDS011;25099;51.946;4.838;2023-05-07T13:22:06;16.65;;;13.95;;
39370;SDS011;25099;51.946;4.838;2023-05-07T13:24:32;21.10;;;14.35;;
39370;SDS011;25099;51.946;4.838;2023-05-07T13:26:57;13.88;;;9.77;;
39370;SDS011;25099;51.946;4.838;2023-05-07T13:29:23;12.45;;;9.90;;
39370;SDS011;25099;51.946;4.838;2023-05-07T13:31:56;11.05;;;9.98;;
39370;SDS011;25099;51.946;4.838;2023-05-07T13:34:22;11.45;;;9.70;;
39370;SDS011;25099;51.946;4.838;2023-05-07T13:36:47;8.98;;;8.18;;
39370;SDS011;25099;51.946;4.838;2023-05-07T13:39:13;10.02;;;8.32;;
39370;SDS011;25099;51.946;4.838;2023-05-07T13:41:39;8.77;;;7.97;;
39370;SDS011;25099;51.946;4.838;2023-05-07T13:44:04;9.82;;;9.00;;
39370;SDS011;25099;51.946;4.838;2023-05-07T13:46:30;11.80;;;10.38;;
39370;SDS011;25099;51.946;4.838;2023-05-07T13:48:56;8.88;;;8.07;;
39370;SDS011;25099;51.946;4.838;2023-05-07T13:51:21;7.32;;;6.53;;
39370;SDS011;25099;51.946;4.838;2023-05-07T13:53:47;6.82;;;6.22;;
39370;SDS011;25099;51.946;4.838;2023-05-07T13:56:13;7.82;;;6.20;;
39370;SDS011;25099;51.946;4.838;2023-05-07T13:58:39;6.85;;;6.07;;
39370;SDS011;25099;51.946;4.838;2023-05-07T14:01:05;6.85;;;6.15;;
39370;SDS011;25099;51.946;4.838;2023-05-07T14:03:30;6.97;;;6.35;;
39370;SDS011;25099;51.946;4.838;2023-05-07T14:05:59;7.35;;;6.65;;
39370;SDS011;25099;51.946;4.838;2023-05-07T14:08:26;6.60;;;5.60;;
39370;SDS011;25099;51.946;4.838;2023-05-07T14:10:52;4.38;;;3.97;;
39370;SDS011;25099;51.946;4.838;2023-05-07T14:13:18;3.85;;;2.83;;
39370;SDS011;25099;51.946;4.838;2023-05-07T14:15:43;2.88;;;2.10;;
39370;SDS011;25099;51.946;4.838;2023-05-07T14:18:14;3.30;;;2.13;;
39370;SDS011;25099;51.946;4.838;2023-05-07T14:20:40;3.17;;;2.70;;
39370;SDS011;25099;51.946;4.838;2023-05-07T14:23:05;4.90;;;3.20;;
39370;SDS011;25099;51.946;4.838;2023-05-07T14:25:31;4.00;;;3.13;;
39370;SDS011;25099;51.946;4.838;2023-05-07T14:27:57;3.65;;;3.35;;
39370;SDS011;25099;51.946;4.838;2023-05-07T14:30:22;4.43;;;4.13;;
39370;SDS011;25099;51.946;4.838;2023-05-07T14:32:49;4.40;;;4.10;;
39370;SDS011;25099;51.946;4.838;2023-05-07T14:35:15;4.80;;;4.40;;
39370;SDS011;25099;51.946;4.838;2023-05-07T14:37:41;8.70;;;7.88;;
39370;SDS011;25099;51.946;4.838;2023-05-07T14:40:06;10.77;;;9.77;;
39370;SDS011;25099;51.946;4.838;2023-05-07T14:42:32;12.20;;;9.48;;
39370;SDS011;25099;51.946;4.838;2023-05-07T14:44:58;13.70;;;12.23;;